Time;durP1;ratioP1;P1;durP2;ratioP2;P2;SDS_P1;SDS_P2;PMS_P1;PMS_P2;Temp;Humidity;BMP_temperature;BMP_pressure;BME280_temperature;BME280_humidity;BME280_pressure;Samples;Min_cycle;Max_cycle;Signal;HPM_P1;HPM_P2
2022/07/09 00:01:14;;;;;;;7.90;4.05;;;16.40;99.90;;;;;;4671567;30;20406;-86
2022/07/09 00:03:40;;;;;;;5.70;2.85;;;16.40;99.90;;;;;;4671419;30;20037;-85
2022/07/09 00:06:06;;;;;;;7.60;4.07;;;16.40;99.90;;;;;;4686972;30;20038;-86
2022/07/09 00:08:32;;;;;;;7.68;3.30;;;16.40;99.90;;;;;;4671017;30;20514;-86
2022/07/09 00:10:57;;;;;;;7.03;3.60;;;16.50;99.90;;;;;;4671522;30;20045;-83
2022/07/09 00:13:23;;;;;;;7.95;3.55;;;16.50;99.90;;;;;;4686974;30;20038;-86
2022/07/09 00:15:50;;;;;;;9.55;3.70;;;16.50;99.90;;;;;;4671459;30;20295;-84
2022/07/09 00:18:15;;;;;;;7.97;3.60;;;16.50;99.90;;;;;;4671238;30;20136;-82
2022/07/09 00:20:41;;;;;;;6.93;3.38;;;16.40;99.90;;;;;;4686705;30;20532;-84
2022/07/09 00:23:07;;;;;;;9.15;3.95;;;16.40;99.90;;;;;;4671072;30;20334;-86
2022/07/09 00:25:33;;;;;;;6.55;3.10;;;16.40;99.90;;;;;;4687062;30;20072;-85
2022/07/09 00:27:59;;;;;;;8.65;3.15;;;16.40;99.90;;;;;;4686653;30;20091;-84
2022/07/09 00:30:24;;;;;;;9.10;4.07;;;16.40;99.90;;;;;;4671409;30;20264;-82
2022/07/09 00:32:50;;;;;;;6.65;3.47;;;16.40;99.90;;;;;;4687030;30;20041;-83
2022/07/09 00:35:16;;;;;;;6.22;3.53;;;16.40;99.90;;;;;;4671154;30;20034;-85
2022/07/09 00:37:42;;;;;;;7.03;3.42;;;16.40;99.90;;;;;;4686694;30;20495;-85
2022/07/09 00:40:08;;;;;;;7.97;3.22;;;16.40;99.90;;;;;;4686370;30;20057;-84
2022/07/09 00:42:34;;;;;;;6.00;3.38;;;16.40;99.90;;;;;;4670773;30;20072;-85
2022/07/09 00:44:59;;;;;;;13.77;4.22;;;16.40;99.90;;;;;;4686599;30;20374;-86
2022/07/09 00:47:25;;;;;;;6.50;3.13;;;16.40;99.90;;;;;;4670875;30;20469;-85
2022/07/09 00:49:52;;;;;;;5.75;2.60;;;16.50;99.90;;;;;;4670543;30;20053;-86
2022/07/09 00:52:18;;;;;;;6.90;2.92;;;16.50;99.90;;;;;;4686053;30;20327;-84
2022/07/09 00:54:45;;;;;;;7.85;3.38;;;16.50;99.90;;;;;;4670471;30;20351;-84
2022/07/09 00:57:12;;;;;;;9.18;2.63;;;16.60;99.90;;;;;;4670727;30;20079;-83
2022/07/09 00:59:39;;;;;;;6.93;3.13;;;16.50;99.90;;;;;;4686673;30;20470;-84
2022/07/09 01:02:07;;;;;;;6.00;3.13;;;16.60;99.90;;;;;;4686806;30;20462;-84
2022/07/09 01:04:33;;;;;;;8.07;3.55;;;16.50;99.90;;;;;;4686223;30;20038;-85
2022/07/09 01:06:59;;;;;;;5.82;2.97;;;16.60;99.90;;;;;;4670517;30;20053;-84
2022/07/09 01:09:26;;;;;;;6.97;3.47;;;16.60;99.90;;;;;;4670410;30;20456;-86
2022/07/09 01:11:52;;;;;;;5.88;3.03;;;16.60;99.90;;;;;;4670475;30;20044;-85
2022/07/09 01:14:18;;;;;;;6.07;2.95;;;16.60;99.90;;;;;;4686314;30;20041;-84
2022/07/09 01:16:43;;;;;;;8.43;3.08;;;16.60;99.90;;;;;;4685799;30;20069;-84
2022/07/09 01:19:09;;;;;;;10.65;3.55;;;16.50;99.90;;;;;;4685841;30;20052;-83
2022/07/09 01:21:35;;;;;;;5.22;2.67;;;16.50;99.90;;;;;;4670280;30;20045;-85
2022/07/09 01:24:02;;;;;;;7.38;3.10;;;16.50;99.90;;;;;;4685987;30;20030;-84
2022/07/09 01:26:28;;;;;;;5.15;2.75;;;16.50;99.90;;;;;;4670354;30;20343;-84
2022/07/09 01:28:54;;;;;;;5.40;2.97;;;16.50;99.90;;;;;;4686218;30;20092;-84
2022/07/09 01:31:20;;;;;;;5.50;2.78;;;16.50;99.90;;;;;;4685963;30;20048;-84
2022/07/09 01:33:49;;;;;;;7.00;3.35;;;16.50;99.90;;;;;;4685840;30;20059;-85
2022/07/09 01:36:14;;;;;;;9.63;3.42;;;16.50;99.90;;;;;;4670135;30;20053;-85
2022/07/09 01:38:40;;;;;;;8.55;3.60;;;16.40;99.90;;;;;;4669828;30;20052;-85
2022/07/09 01:41:06;;;;;;;6.25;3.42;;;16.40;99.90;;;;;;4685958;30;20033;-85
2022/07/09 01:43:33;;;;;;;7.40;3.35;;;16.50;99.90;;;;;;4670024;30;20037;-85
2022/07/09 01:46:00;;;;;;;5.30;2.90;;;16.40;99.90;;;;;;4669405;30;20491;-85
2022/07/09 01:48:26;;;;;;;7.32;3.17;;;16.30;99.90;;;;;;4669798;30;20390;-86
2022/07/09 01:50:53;;;;;;;7.63;3.70;;;16.30;99.90;;;;;;4669873;30;20433;-86
2022/07/09 01:53:19;;;;;;;8.70;3.42;;;16.30;99.90;;;;;;4669829;30;20306;-86
2022/07/09 01:55:45;;;;;;;6.30;3.05;;;16.30;99.90;;;;;;4669661;30;20096;-85
2022/07/09 01:58:11;;;;;;;7.53;3.65;;;16.30;99.90;;;;;;4685257;30;20124;-84
2022/07/09 02:00:37;;;;;;;8.32;3.75;;;16.20;99.90;;;;;;4669537;30;20033;-86
2022/07/09 02:03:03;;;;;;;8.40;3.67;;;16.10;99.90;;;;;;4685227;30;20033;-86
2022/07/09 02:05:29;;;;;;;8.27;4.05;;;16.20;99.90;;;;;;4685205;30;20056;-84
2022/07/09 02:07:58;;;;;;;8.55;3.92;;;16.20;99.90;;;;;;4685327;30;20034;-85
2022/07/09 02:10:24;;;;;;;7.43;3.83;;;16.10;99.90;;;;;;4669023;30;20146;-85
2022/07/09 02:12:49;;;;;;;7.03;3.47;;;16.10;99.90;;;;;;4685308;30;20187;-83
2022/07/09 02:15:15;;;;;;;7.80;3.97;;;16.10;99.90;;;;;;4669489;30;20041;-87
2022/07/09 02:17:41;;;;;;;7.82;4.43;;;16.10;99.90;;;;;;4685183;30;20115;-85
2022/07/09 02:20:08;;;;;;;8.27;4.18;;;16.00;99.90;;;;;;4685110;30;20124;-81
2022/07/09 02:22:34;;;;;;;8.55;4.53;;;16.00;99.90;;;;;;4669468;30;20522;-85
2022/07/09 02:25:00;;;;;;;9.40;4.75;;;16.00;99.90;;;;;;4669450;30;20052;-85
2022/07/09 02:27:26;;;;;;;7.40;4.35;;;16.00;99.90;;;;;;4685364;30;20395;-87
2022/07/09 02:29:51;;;;;;;9.63;4.88;;;15.90;99.90;;;;;;4685111;30;20120;-83
2022/07/09 02:32:17;;;;;;;8.68;3.83;;;15.80;99.90;;;;;;4669532;30;20531;-85
2022/07/09 02:34:43;;;;;;;8.73;4.57;;;15.80;99.90;;;;;;4685340;30;20049;-83
2022/07/09 02:37:09;;;;;;;11.35;4.18;;;15.80;99.90;;;;;;4669356;30;20089;-84
2022/07/09 02:39:35;;;;;;;6.25;3.95;;;15.80;99.90;;;;;;4685077;30;20489;-84
2022/07/09 02:42:00;;;;;;;9.65;3.90;;;15.90;99.90;;;;;;4684907;30;20091;-85
2022/07/09 02:44:26;;;;;;;7.47;3.70;;;15.90;99.90;;;;;;4669422;30;20499;-87
2022/07/09 02:46:52;;;;;;;6.53;3.83;;;15.90;99.90;;;;;;4684863;30;20343;-86
2022/07/09 02:49:18;;;;;;;5.88;3.40;;;15.90;99.90;;;;;;4684711;30;20038;-84
2022/07/09 02:51:45;;;;;;;8.63;3.90;;;15.90;99.90;;;;;;4684927;30;20053;-87
2022/07/09 02:54:11;;;;;;;8.73;4.13;;;15.80;99.90;;;;;;4669767;30;20116;-86
2022/07/09 02:56:37;;;;;;;6.88;3.97;;;15.80;99.90;;;;;;4678843;30;20042;-84
2022/07/09 02:59:03;;;;;;;7.63;3.63;;;15.80;99.90;;;;;;4700524;30;20034;-86
2022/07/09 03:01:29;;;;;;;7.93;3.92;;;15.70;99.90;;;;;;4688467;30;20042;-84
2022/07/09 03:03:54;;;;;;;9.45;3.17;;;15.70;99.90;;;;;;4686093;30;20101;-84
2022/07/09 03:06:20;;;;;;;7.85;4.20;;;15.70;99.90;;;;;;4685222;30;20033;-83
2022/07/09 03:08:46;;;;;;;7.97;3.50;;;15.70;99.90;;;;;;4684139;30;20310;-83
2022/07/09 03:11:12;;;;;;;6.15;3.28;;;15.70;99.90;;;;;;4684451;30;20223;-85
2022/07/09 03:13:38;;;;;;;6.32;3.35;;;;;;;;;;4669044;30;20033;-85
2022/07/09 03:16:04;;;;;;;6.30;3.60;;;15.80;99.90;;;;;;4668645;30;20423;-86
2022/07/09 03:18:33;;;;;;;5.38;2.92;;;15.90;99.90;;;;;;4683102;30;20561;-84
2022/07/09 03:20:59;;;;;;;6.57;3.08;;;15.90;99.90;;;;;;4684646;30;20121;-82
2022/07/09 03:23:25;;;;;;;8.65;3.95;;;15.90;99.90;;;;;;4687723;30;20231;-83
2022/07/09 03:25:51;;;;;;;5.65;2.75;;;15.90;99.90;;;;;;4687779;30;20113;-84
2022/07/09 03:28:16;;;;;;;8.40;3.10;;;15.90;99.90;;;;;;4687983;30;20265;-84
2022/07/09 03:30:42;;;;;;;7.47;3.03;;;15.90;99.90;;;;;;4687690;30;20038;-84
2022/07/09 03:33:08;;;;;;;7.75;3.50;;;15.90;99.90;;;;;;4688205;30;20477;-86
2022/07/09 03:35:33;;;;;;;6.22;2.78;;;15.90;99.90;;;;;;4687714;30;20320;-86
2022/07/09 03:38:02;;;;;;;6.57;2.88;;;15.90;99.90;;;;;;4671959;30;20254;-86
2022/07/09 03:40:31;;;;;;;6.28;2.83;;;15.90;99.90;;;;;;4687562;30;20037;-85
2022/07/09 03:42:57;;;;;;;7.10;2.80;;;15.90;99.90;;;;;;4671795;30;20327;-84
2022/07/09 03:45:23;;;;;;;6.05;2.60;;;15.90;99.90;;;;;;4687629;30;20034;-84
2022/07/09 03:47:50;;;;;;;5.40;2.42;;;16.00;99.90;;;;;;4671985;30;20255;-86
2022/07/09 03:50:16;;;;;;;7.95;2.50;;;16.00;99.90;;;;;;4671794;30;20049;-86
2022/07/09 03:52:48;;;;;;;6.50;2.85;;;16.00;99.90;;;;;;4671992;30;20041;-87
2022/07/09 03:55:14;;;;;;;6.40;3.10;;;15.90;99.90;;;;;;4671970;30;20503;-82
2022/07/09 03:57:39;;;;;;;5.78;2.40;;;15.80;99.90;;;;;;4686193;30;20377;-84
2022/07/09 04:00:06;;;;;;;5.60;2.55;;;15.80;99.90;;;;;;4687754;30;20038;-86
2022/07/09 04:02:32;;;;;;;3.78;1.88;;;15.80;99.90;;;;;;4686984;30;20041;-84
2022/07/09 04:04:58;;;;;;;4.28;1.98;;;15.70;99.90;;;;;;4687396;30;20602;-86
2022/07/09 04:07:26;;;;;;;4.90;2.22;;;15.70;99.90;;;;;;4671598;30;20125;-84
2022/07/09 04:09:53;;;;;;;5.75;2.00;;;15.70;99.90;;;;;;4687060;30;20064;-86
2022/07/09 04:12:20;;;;;;;6.20;2.45;;;15.70;99.90;;;;;;4687367;30;20127;-85
2022/07/09 04:14:46;;;;;;;4.32;2.00;;;15.60;99.90;;;;;;4687061;30;20107;-83
2022/07/09 04:17:11;;;;;;;4.88;2.40;;;15.60;99.90;;;;;;4671242;30;20240;-86
2022/07/09 04:19:37;;;;;;;6.50;2.28;;;15.50;99.90;;;;;;4671538;30;20045;-85
2022/07/09 04:22:03;;;;;;;5.47;2.53;;;17.30;99.90;;;;;;4687218;30;20107;-83
2022/07/09 04:24:29;;;;;;;5.78;2.85;;;15.50;99.90;;;;;;4671572;30;20038;-84
2022/07/09 04:26:56;;;;;;;4.72;2.45;;;15.40;99.90;;;;;;4686991;30;20037;-84
2022/07/09 04:29:22;;;;;;;5.25;2.17;;;15.40;99.90;;;;;;4687131;30;20510;-84
2022/07/09 04:31:48;;;;;;;7.30;3.53;;;15.50;99.90;;;;;;4686660;30;20042;-85
2022/07/09 04:34:14;;;;;;;6.15;2.90;;;15.40;99.90;;;;;;4686678;30;20048;-86
2022/07/09 04:36:39;;;;;;;7.55;2.97;;;15.50;99.90;;;;;;4686702;30;20057;-85
2022/07/09 04:39:09;;;;;;;5.50;2.90;;;15.50;99.90;;;;;;4685525;30;20051;-85
2022/07/09 04:41:36;;;;;;;8.13;3.15;;;15.40;99.90;;;;;;4670731;30;20107;-84
2022/07/09 04:44:03;;;;;;;6.38;3.05;;;15.30;99.90;;;;;;4671282;30;20460;-83
2022/07/09 04:46:30;;;;;;;6.90;2.50;;;15.40;99.90;;;;;;4686537;30;20577;-85
2022/07/09 04:48:56;;;;;;;4.47;2.22;;;15.40;99.90;;;;;;4686445;30;20057;-85
2022/07/09 04:51:22;;;;;;;6.80;2.88;;;15.40;99.90;;;;;;4686666;30;20483;-82
2022/07/09 04:53:48;;;;;;;5.10;2.47;;;15.40;99.90;;;;;;4686734;30;20656;-85
2022/07/09 04:56:14;;;;;;;6.10;2.47;;;15.40;99.90;;;;;;4670589;30;20169;-86
2022/07/09 04:58:51;;;;;;;5.22;2.00;;;15.40;99.90;;;;;;4670275;30;20578;-84
2022/07/09 05:01:18;;;;;;;5.25;2.10;;;15.50;99.90;;;;;;4670991;30;20513;-86
2022/07/09 05:03:46;;;;;;;4.03;2.38;;;15.40;99.90;;;;;;4671176;30;20088;-82
2022/07/09 05:06:16;;;;;;;4.88;2.20;;;15.40;99.90;;;;;;4670936;30;20044;-85
2022/07/09 05:08:42;;;;;;;4.75;2.15;;;15.40;99.90;;;;;;4685841;30;20049;-88
2022/07/09 05:11:09;;;;;;;4.50;1.60;;;15.40;99.90;;;;;;4689324;30;20057;-85
2022/07/09 05:13:36;;;;;;;2.42;1.33;;;15.40;99.90;;;;;;4675691;30;20033;-81
2022/07/09 05:16:03;;;;;;;3.38;1.55;;;15.40;99.90;;;;;;4703816;30;20133;-84
2022/07/09 05:18:31;;;;;;;5.15;1.83;;;15.50;99.90;;;;;;4706114;30;20041;-87
2022/07/09 05:20:57;;;;;;;2.97;1.40;;;15.60;99.90;;;;;;4707997;30;20057;-86
2022/07/09 05:23:23;;;;;;;4.97;1.58;;;15.60;99.90;;;;;;4692404;30;20026;-85
2022/07/09 05:25:48;;;;;;;4.03;1.70;;;15.60;99.90;;;;;;4692706;30;20201;-86
2022/07/09 05:28:15;;;;;;;3.25;1.80;;;15.60;99.90;;;;;;4690286;30;20104;-82
2022/07/09 05:30:42;;;;;;;4.05;1.25;;;15.70;99.90;;;;;;4680204;30;20041;-83
2022/07/09 05:33:08;;;;;;;2.30;1.40;;;15.70;99.90;;;;;;4688473;30;20351;-80
2022/07/09 05:35:34;;;;;;;2.88;1.50;;;15.70;99.90;;;;;;4672027;30;20511;-84
2022/07/09 05:38:06;;;;;;;3.42;1.63;;;16.80;99.90;;;;;;4688655;30;20046;-86
2022/07/09 05:40:31;;;;;;;8.23;2.13;;;15.70;99.90;;;;;;4688278;30;20034;-85
2022/07/09 05:42:57;;;;;;;5.05;2.40;;;15.60;99.90;;;;;;4672680;30;20355;-84
2022/07/09 05:45:23;;;;;;;3.63;1.80;;;;;;;;;;4671835;30;20343;-85
2022/07/09 05:47:49;;;;;;;10.45;2.35;;;15.50;99.90;;;;;;4672652;30;20351;-85
2022/07/09 05:50:15;;;;;;;5.05;2.17;;;15.40;99.90;;;;;;4671808;30;20067;-83
2022/07/09 05:52:41;;;;;;;3.92;1.48;;;15.50;99.90;;;;;;4671404;30;20160;-83
2022/07/09 05:55:07;;;;;;;3.60;1.65;;;15.50;99.90;;;;;;4687810;30;20030;-86
2022/07/09 05:57:32;;;;;;;3.88;1.75;;;15.40;99.90;;;;;;4689859;30;20053;-86
2022/07/09 06:00:03;;;;;;;3.40;1.58;;;15.70;99.90;;;;;;4672871;30;20068;-83
2022/07/09 06:02:29;;;;;;;5.72;2.08;;;15.30;99.90;;;;;;4672557;30;20046;-85
2022/07/09 06:04:55;;;;;;;5.10;2.10;;;15.30;99.90;;;;;;4672017;30;20346;-85
2022/07/09 06:07:21;;;;;;;3.35;1.60;;;15.30;99.90;;;;;;4687946;30;20034;-85
2022/07/09 06:09:47;;;;;;;3.25;1.55;;;15.40;99.90;;;;;;4686458;30;20120;-84
2022/07/09 06:12:12;;;;;;;2.80;1.42;;;15.50;99.90;;;;;;4670613;30;20040;-86
2022/07/09 06:14:39;;;;;;;6.85;1.55;;;15.50;99.90;;;;;;4685558;30;20639;-84
2022/07/09 06:17:05;;;;;;;3.22;1.33;;;15.60;99.90;;;;;;4685630;30;20151;-84
2022/07/09 06:19:34;;;;;;;2.45;1.73;;;15.50;99.90;;;;;;4669855;30;20049;-85
2022/07/09 06:22:01;;;;;;;3.08;1.30;;;15.50;99.90;;;;;;4685797;30;20045;-82
2022/07/09 06:24:27;;;;;;;4.68;1.90;;;15.50;99.90;;;;;;4669872;30;20068;-83
2022/07/09 06:26:56;;;;;;;38.75;23.88;;;15.50;99.90;;;;;;4669973;30;20112;-82
2022/07/09 06:29:22;;;;;;;18.65;9.07;;;15.60;99.90;;;;;;4684384;30;20045;-85
2022/07/09 06:31:47;;;;;;;4.70;2.38;;;15.60;99.90;;;;;;4686005;30;20216;-83
2022/07/09 06:34:13;;;;;;;6.80;2.08;;;15.70;99.90;;;;;;4685549;30;20030;-84
2022/07/09 06:36:41;;;;;;;3.85;1.58;;;15.70;99.90;;;;;;4669577;30;20282;-85
2022/07/09 06:41:51;;;;;;;6.82;3.00;;;15.80;99.90;;;;;;4684922;30;20580;-84
2022/07/09 06:44:17;;;;;;;5.38;2.72;;;14.00;99.90;;;;;;4685203;30;20259;-84
2022/07/09 06:46:42;;;;;;;6.53;2.15;;;15.80;99.90;;;;;;4685148;30;20107;-87
2022/07/09 06:49:08;;;;;;;4.00;1.70;;;15.70;99.90;;;;;;4684845;30;20055;-84
2022/07/09 06:51:34;;;;;;;4.00;1.67;;;15.80;99.90;;;;;;4685069;30;20085;-86
2022/07/09 06:54:00;;;;;;;4.53;2.15;;;15.80;99.90;;;;;;4684869;30;20128;-86
2022/07/09 06:56:25;;;;;;;5.90;2.03;;;15.90;99.90;;;;;;4687542;30;20042;-83
2022/07/09 06:58:51;;;;;;;6.63;2.28;;;15.90;99.90;;;;;;4672543;30;20449;-84
2022/07/09 07:01:17;;;;;;;4.55;2.15;;;16.00;99.90;;;;;;4672675;30;20041;-84
2022/07/09 07:03:43;;;;;;;4.25;1.92;;;16.00;99.90;;;;;;4688186;30;20433;-82
2022/07/09 07:06:08;;;;;;;3.75;1.50;;;16.10;99.90;;;;;;4672688;30;20095;-83
2022/07/09 07:08:34;;;;;;;4.53;1.95;;;16.20;99.90;;;;;;4672280;30;20438;-83
2022/07/09 07:11:00;;;;;;;7.05;1.65;;;16.20;99.90;;;;;;4672197;30;20116;-83
2022/07/09 07:13:26;;;;;;;4.57;1.50;;;16.30;99.90;;;;;;4688145;30;20033;-83
2022/07/09 07:15:51;;;;;;;4.95;2.22;;;16.30;99.90;;;;;;4671770;30;20161;-82
2022/07/09 07:18:17;;;;;;;5.15;1.85;;;16.30;99.90;;;;;;4687952;30;20550;-85
2022/07/09 07:20:43;;;;;;;4.68;1.90;;;16.30;99.90;;;;;;4672211;30;20522;-81
2022/07/09 07:23:09;;;;;;;3.60;1.73;;;16.20;99.90;;;;;;4687815;30;20053;-85
2022/07/09 07:25:35;;;;;;;5.38;1.98;;;;;;;;;;4672210;30;20579;-86
2022/07/09 07:28:03;;;;;;;4.65;2.08;;;16.30;99.90;;;;;;4687672;30;20514;-85
2022/07/09 07:30:32;;;;;;;3.58;1.40;;;16.30;99.90;;;;;;4672003;30;20469;-85
2022/07/09 07:32:59;;;;;;;3.00;1.45;;;16.30;99.90;;;;;;4672056;30;20034;-85
2022/07/09 07:35:24;;;;;;;5.90;1.83;;;16.30;99.90;;;;;;4687926;30;20072;-83
2022/07/09 07:37:50;;;;;;;4.65;1.67;;;16.30;99.90;;;;;;4687704;30;20536;-83
2022/07/09 07:40:17;;;;;;;5.70;2.00;;;16.30;99.90;;;;;;4687898;30;20046;-84
2022/07/09 07:42:43;;;;;;;4.18;2.03;;;16.20;99.90;;;;;;4672370;30;20212;-86
2022/07/09 07:45:09;;;;;;;6.10;2.55;;;16.50;99.90;;;;;;4671981;30;20400;-85
2022/07/09 07:47:35;;;;;;;4.45;1.95;;;16.20;99.90;;;;;;4672076;30;20049;-81
2022/07/09 07:50:01;;;;;;;6.88;2.22;;;16.20;99.90;;;;;;4671903;30;20103;-82
2022/07/09 07:52:27;;;;;;;5.45;1.83;;;16.20;99.90;;;;;;4687764;30;20080;-83
2022/07/09 07:54:52;;;;;;;5.43;2.30;;;16.20;99.90;;;;;;4688011;30;20037;-85
2022/07/09 07:57:19;;;;;;;7.78;3.00;;;16.20;99.90;;;;;;4687707;30;20355;-81
2022/07/09 07:59:48;;;;;;;6.63;2.92;;;16.20;99.90;;;;;;4687360;30;20489;-84
2022/07/09 08:02:14;;;;;;;8.90;3.05;;;16.20;99.90;;;;;;4687546;30;20473;-84
2022/07/09 08:04:40;;;;;;;6.28;2.55;;;15.90;99.90;;;;;;4671674;30;20037;-85
2022/07/09 08:07:06;;;;;;;4.75;2.17;;;16.00;99.90;;;;;;4670968;30;20065;-82
2022/07/09 08:09:33;;;;;;;6.03;2.30;;;15.80;99.90;;;;;;4671167;30;20053;-82
2022/07/09 08:12:00;;;;;;;5.18;2.33;;;15.80;99.90;;;;;;4671468;30;20042;-87
2022/07/09 08:14:26;;;;;;;4.45;2.00;;;15.80;99.90;;;;;;4687467;30;20410;-84
2022/07/09 08:16:51;;;;;;;3.63;1.90;;;15.90;99.90;;;;;;4686952;30;20357;-83
2022/07/09 08:19:17;;;;;;;6.63;2.72;;;15.90;99.90;;;;;;4686849;30;20336;-83
2022/07/09 08:21:43;;;;;;;6.57;2.30;;;15.90;99.90;;;;;;4671468;30;20439;-83
2022/07/09 08:24:09;;;;;;;4.88;2.10;;;16.00;99.90;;;;;;4671035;30;20041;-84
2022/07/09 08:26:40;;;;;;;7.00;2.58;;;16.00;99.90;;;;;;4687030;30;20050;-83
2022/07/09 08:29:06;;;;;;;9.50;2.45;;;16.00;99.90;;;;;;4686995;30;20046;-83
2022/07/09 08:31:32;;;;;;;4.70;2.22;;;16.10;99.90;;;;;;4674803;30;20104;-83
2022/07/09 08:34:00;;;;;;;4.68;1.90;;;16.10;99.90;;;;;;4671234;30;20080;-84
2022/07/09 08:36:26;;;;;;;4.60;1.95;;;16.10;99.90;;;;;;4686641;30;20038;-83
2022/07/09 08:38:52;;;;;;;4.80;2.22;;;16.20;99.90;;;;;;4670874;30;20536;-84
2022/07/09 08:41:21;;;;;;;6.82;2.17;;;16.30;99.90;;;;;;4686748;30;20732;-84
2022/07/09 08:43:51;;;;;;;6.75;2.03;;;16.20;99.90;;;;;;4686780;30;20052;-82
2022/07/09 08:46:18;;;;;;;7.93;2.55;;;16.20;99.90;;;;;;4686371;30;20124;-82
2022/07/09 08:48:44;;;;;;;5.57;2.22;;;16.30;99.90;;;;;;4686316;30;20026;-81
2022/07/09 08:51:11;;;;;;;5.05;2.03;;;16.50;99.90;;;;;;4686438;30;20045;-83
2022/07/09 08:53:42;;;;;;;4.95;2.65;;;16.70;99.90;;;;;;4670673;30;20069;-82
2022/07/09 08:56:09;;;;;;;5.57;2.70;;;17.00;99.90;;;;;;4671261;30;20518;-84
2022/07/09 08:58:35;;;;;;;4.20;2.20;;;17.20;99.90;;;;;;4686451;30;20084;-83
2022/07/09 09:01:01;;;;;;;8.02;2.80;;;17.40;99.90;;;;;;4686380;30;20046;-82
2022/07/09 09:03:27;;;;;;;5.70;2.88;;;17.50;99.90;;;;;;4670922;30;20046;-80
2022/07/09 09:06:08;;;;;;;7.40;3.20;;;17.60;99.90;;;;;;4685917;30;20682;-84
2022/07/09 09:08:44;;;;;;;4.90;2.40;;;17.70;99.90;;;;;;4670324;30;20088;-82
2022/07/09 09:11:16;;;;;;;7.05;3.08;;;18.00;99.50;;;;;;4671182;30;20581;-82
2022/07/09 09:13:43;;;;;;;7.25;2.53;;;18.20;99.20;;;;;;4671405;30;20049;-84
2022/07/09 09:16:10;;;;;;;12.65;3.20;;;18.30;98.40;;;;;;4670779;30;20053;-81
2022/07/09 09:18:39;;;;;;;8.00;3.30;;;18.30;98.40;;;;;;4686052;30;20052;-86
2022/07/09 09:21:07;;;;;;;6.93;2.67;;;18.50;97.70;;;;;;4686309;30;20107;-81
2022/07/09 09:23:47;;;;;;;4.38;2.30;;;18.60;97.40;;;;;;4670520;30;20037;-82
2022/07/09 09:26:23;;;;;;;4.63;2.42;;;18.70;97.40;;;;;;4685951;30;20167;-83
2022/07/09 09:28:54;;;;;;;5.82;2.28;;;18.90;97.00;;;;;;4670132;30;20470;-83
2022/07/09 09:31:27;;;;;;;6.40;2.65;;;18.90;96.90;;;;;;4685993;30;20552;-82
2022/07/09 09:34:06;;;;;;;5.53;2.30;;;18.90;96.90;;;;;;4686002;30;20525;-84
2022/07/09 09:36:33;;;;;;;4.75;2.33;;;19.00;96.60;;;;;;4685869;30;20081;-82
2022/07/09 09:39:19;;;;;;;4.45;2.15;;;20.10;96.80;;;;;;4685908;30;20035;-82
2022/07/09 09:41:54;;;;;;;6.15;2.30;;;19.10;96.30;;;;;;4685548;30;20033;-81
2022/07/09 09:44:39;;;;;;;5.80;2.00;;;19.10;96.10;;;;;;4685586;30;20045;-81
2022/07/09 09:47:07;;;;;;;6.68;2.70;;;19.20;96.10;;;;;;4684239;30;20041;-81
2022/07/09 09:49:34;;;;;;;4.00;2.30;;;19.80;96.30;;;;;;4669606;30;20712;-83
2022/07/09 09:52:08;;;;;;;6.35;2.33;;;19.00;95.70;;;;;;4685556;30;20569;-84
2022/07/09 09:54:36;;;;;;;5.82;2.67;;;19.20;96.30;;;;;;4670122;30;20034;-83
2022/07/09 09:57:24;;;;;;;6.13;2.65;;;19.20;95.80;;;;;;4669751;30;20593;-83
2022/07/09 09:59:52;;;;;;;8.43;2.70;;;19.40;95.80;;;;;;4669673;30;20045;-82
2022/07/09 10:02:20;;;;;;;6.97;3.05;;;19.70;95.50;;;;;;4685476;30;20043;-82
2022/07/09 10:04:46;;;;;;;7.55;2.28;;;19.80;94.90;;;;;;4684868;30;20042;-84
2022/07/09 10:07:14;;;;;;;4.85;2.22;;;19.80;94.60;;;;;;4685232;30;20290;-82
2022/07/09 10:09:40;;;;;;;5.93;2.45;;;19.70;94.20;;;;;;4669521;30;20786;-83
2022/07/09 10:12:09;;;;;;;10.75;2.70;;;19.60;94.70;;;;;;4669531;30;20291;-82
2022/07/09 10:14:37;;;;;;;6.15;2.35;;;19.60;94.70;;;;;;4685051;30;20085;-84
2022/07/09 10:17:14;;;;;;;6.40;2.33;;;19.70;94.40;;;;;;4685381;30;20376;-82
2022/07/09 10:19:55;;;;;;;4.22;2.25;;;19.50;94.60;;;;;;4686470;30;20068;-81
2022/07/09 10:22:43;;;;;;;5.95;2.40;;;19.30;94.70;;;;;;4670383;30;20084;-83
2022/07/09 10:25:11;;;;;;;4.82;2.17;;;19.10;94.70;;;;;;4669574;30;20038;-82
2022/07/09 10:27:47;;;;;;;5.43;2.42;;;18.90;95.10;;;;;;4684999;30;20037;-83
2022/07/09 10:30:24;;;;;;;4.72;2.13;;;18.90;95.60;;;;;;4668677;30;20048;-82
2022/07/09 10:33:07;;;;;;;6.35;2.50;;;19.00;95.40;;;;;;4669175;30;20131;-81
2022/07/09 10:35:45;;;;;;;5.22;2.38;;;18.90;95.30;;;;;;4668845;30;20116;-83
2022/07/09 10:38:14;;;;;;;6.50;2.55;;;18.90;95.60;;;;;;4684526;30;20053;-82
2022/07/09 10:41:09;;;;;;;4.80;2.40;;;18.70;95.40;;;;;;4684728;30;20045;-86
2022/07/09 10:43:40;;;;;;;6.28;2.28;;;18.60;96.00;;;;;;4596967;31;20052;-82
2022/07/09 10:46:13;;;;;;;6.20;2.45;;;18.70;95.90;;;;;;4596937;31;20040;-82
2022/07/09 10:48:40;;;;;;;4.20;2.25;;;18.90;95.50;;;;;;4596808;30;20469;-83
2022/07/09 10:51:06;;;;;;;5.32;2.60;;;19.00;95.00;;;;;;4597273;31;20052;-85
2022/07/09 10:53:32;;;;;;;2.75;1.65;;;19.00;95.70;;;;;;4583241;31;20115;-84
2022/07/09 10:55:59;;;;;;;4.30;1.77;;;19.10;95.30;;;;;;4583385;31;20158;-83
2022/07/09 10:58:25;;;;;;;4.75;2.10;;;19.30;94.50;;;;;;4597475;31;20134;-82
2022/07/09 11:00:59;;;;;;;6.13;2.13;;;19.60;94.00;;;;;;4597163;31;20047;-83
2022/07/09 11:03:29;;;;;;;6.85;2.53;;;19.90;93.90;;;;;;4596913;31;20314;-83
2022/07/09 11:05:56;;;;;;;5.40;2.28;;;19.80;94.20;;;;;;4596949;31;20532;-82
2022/07/09 11:08:22;;;;;;;6.75;2.53;;;20.00;94.50;;;;;;4597099;31;20051;-85
2022/07/09 11:10:48;;;;;;;5.03;2.55;;;20.30;93.10;;;;;;4583109;31;20179;-83
2022/07/09 11:13:24;;;;;;;5.18;2.40;;;20.50;92.90;;;;;;4596444;31;20746;-84
2022/07/09 11:15:50;;;;;;;9.13;3.83;;;20.80;92.70;;;;;;4596660;31;20040;-82
2022/07/09 11:18:16;;;;;;;5.57;2.80;;;20.70;92.80;;;;;;4596772;31;20076;-82
2022/07/09 11:20:46;;;;;;;5.63;2.13;;;21.00;93.40;;;;;;4664549;30;20504;-84
2022/07/09 11:23:16;;;;;;;5.80;2.53;;;21.10;92.30;;;;;;4668981;30;20302;-82
2022/07/09 11:25:43;;;;;;;3.28;1.85;;;21.30;91.50;;;;;;4684619;30;20519;-84
2022/07/09 11:28:25;;;;;;;5.82;2.80;;;21.20;91.50;;;;;;4684468;30;20042;-81
2022/07/09 11:31:07;;;;;;;6.85;2.58;;;21.40;91.10;;;;;;4684219;30;20046;-83
2022/07/09 11:36:20;;;;;;;6.97;2.50;;;21.40;90.40;;;;;;4684295;30;20317;-83
2022/07/09 11:38:58;;;;;;;5.38;2.90;;;21.20;90.80;;;;;;4668456;30;20290;-83
2022/07/09 11:41:23;;;;;;;7.80;3.72;;;20.90;91.30;;;;;;4684071;30;20034;-82
2022/07/09 11:43:50;;;;;;;4.93;2.50;;;20.70;92.00;;;;;;4686898;30;20048;-84
2022/07/09 11:46:20;;;;;;;6.15;2.63;;;20.50;92.00;;;;;;4671318;30;20149;-83
2022/07/09 11:48:52;;;;;;;4.75;2.42;;;20.40;91.80;;;;;;4686996;30;20125;-85
2022/07/09 11:51:32;;;;;;;5.70;2.08;;;20.30;92.20;;;;;;4687012;30;20561;-84
2022/07/09 11:54:01;;;;;;;6.20;2.40;;;20.10;92.20;;;;;;4686830;30;20331;-83
2022/07/09 11:56:27;;;;;;;6.45;2.67;;;20.10;92.60;;;;;;4670879;30;20037;-83
2022/07/09 11:58:54;;;;;;;7.88;2.40;;;20.00;92.70;;;;;;4671084;30;20543;-84
2022/07/09 12:01:24;;;;;;;7.25;2.60;;;20.10;92.40;;;;;;4671186;30;20050;-83
2022/07/09 12:03:50;;;;;;;5.55;2.22;;;20.10;92.80;;;;;;4670921;30;20049;-82
2022/07/09 12:06:17;;;;;;;5.45;2.17;;;20.10;92.90;;;;;;4686627;30;20546;-84
2022/07/09 12:08:43;;;;;;;4.70;2.20;;;19.80;92.90;;;;;;4686601;30;20143;-83
2022/07/09 12:11:09;;;;;;;5.90;2.05;;;19.90;93.10;;;;;;4686871;30;20037;-82
2022/07/09 12:13:35;;;;;;;6.00;2.60;;;19.90;93.00;;;;;;4671448;30;20499;-84
2022/07/09 12:16:01;;;;;;;6.38;2.65;;;19.80;93.20;;;;;;4687011;30;20089;-85
2022/07/09 12:18:27;;;;;;;4.57;2.45;;;19.90;93.30;;;;;;4686947;30;20186;-82
2022/07/09 12:21:02;;;;;;;5.22;2.42;;;19.80;93.60;;;;;;4671228;30;20604;-84
2022/07/09 12:23:28;;;;;;;8.13;2.65;;;19.90;94.00;;;;;;4686895;30;20041;-84
2022/07/09 12:25:54;;;;;;;6.22;3.03;;;19.90;93.30;;;;;;4686946;30;20052;-82
2022/07/09 12:28:20;;;;;;;8.35;3.58;;;19.60;93.70;;;;;;4686601;30;20049;-83
2022/07/09 12:30:46;;;;;;;8.63;3.50;;;19.60;94.40;;;;;;4686439;30;20351;-83
2022/07/09 12:33:11;;;;;;;5.00;2.70;;;19.40;94.70;;;;;;4686672;30;20058;-83
2022/07/09 12:35:37;;;;;;;7.22;3.35;;;19.40;94.80;;;;;;4670962;30;20129;-84
2022/07/09 12:38:03;;;;;;;6.95;3.30;;;19.40;94.80;;;;;;4686652;30;20099;-83
2022/07/09 12:40:29;;;;;;;6.57;3.17;;;;;;;;;;4670466;30;20328;-82
2022/07/09 12:42:55;;;;;;;5.43;2.50;;;19.40;94.60;;;;;;4686661;30;20053;-82
2022/07/09 12:45:22;;;;;;;5.10;2.40;;;19.30;94.90;;;;;;4686860;30;20030;-84
2022/07/09 12:47:48;;;;;;;6.45;2.78;;;19.40;94.70;;;;;;4686887;30;20056;-83
2022/07/09 12:50:13;;;;;;;6.35;2.88;;;19.60;95.10;;;;;;4670809;30;20506;-83
2022/07/09 12:52:42;;;;;;;5.05;2.58;;;19.70;94.70;;;;;;4686273;30;20042;-85
2022/07/09 12:55:09;;;;;;;7.03;2.83;;;19.80;94.80;;;;;;4670573;30;20351;-86